Time;durP1;ratioP1;P1;durP2;ratioP2;P2;SDS_P1;SDS_P2;PMS_P1;PMS_P2;Temp;Humidity;BMP_temperature;BMP_pressure;BME280_temperature;BME280_humidity;BME280_pressure;Samples;Min_cycle;Max_cycle;Signal;HPM_P1;HPM_P2
2024/01/03 00:02:00;;;;;;;1.07;1.07;;;8.00;99.90;;;;;;478480;248;27865;-66
2024/01/03 00:04:02;;;;;;;1.63;1.30;;;8.00;99.90;;;;;;478430;248;27863;-66
2024/01/03 00:06:03;;;;;;;2.10;1.20;;;8.00;99.90;;;;;;478468;248;27985;-65
2024/01/03 00:08:04;;;;;;;2.30;1.43;;;8.00;99.90;;;;;;478460;247;27889;-67
2024/01/03 00:10:05;;;;;;;3.37;1.20;;;8.00;99.90;;;;;;478469;248;28018;-66
2024/01/03 00:12:07;;;;;;;1.63;1.53;;;8.00;99.90;;;;;;478386;248;27411;-66
2024/01/03 00:14:08;;;;;;;2.10;1.47;;;8.00;99.90;;;;;;478445;247;27986;-69
2024/01/03 00:16:09;;;;;;;1.20;1.10;;;8.00;99.90;;;;;;478468;248;27720;-65
2024/01/03 00:18:10;;;;;;;1.30;1.20;;;8.00;99.90;;;;;;478384;248;27897;-66
2024/01/03 00:20:12;;;;;;;2.93;1.10;;;8.00;99.90;;;;;;478384;248;27863;-65
2024/01/03 00:22:16;;;;;;;3.17;1.60;;;7.90;99.90;;;;;;484670;245;27719;-66
2024/01/03 00:24:17;;;;;;;1.73;1.10;;;7.90;99.90;;;;;;485204;245;27959;-67
2024/01/03 00:26:18;;;;;;;3.13;1.20;;;7.90;99.90;;;;;;485218;245;27902;-66
2024/01/03 00:28:19;;;;;;;2.23;0.83;;;8.00;99.90;;;;;;485253;245;27881;-66
2024/01/03 00:30:21;;;;;;;4.20;1.50;;;7.90;99.90;;;;;;485236;245;28113;-66
2024/01/03 00:32:22;;;;;;;2.83;1.33;;;8.00;99.90;;;;;;485229;245;28116;-67
2024/01/03 00:34:26;;;;;;;1.40;1.30;;;8.00;99.90;;;;;;485200;245;27735;-66
2024/01/03 00:36:27;;;;;;;3.43;1.40;;;8.00;99.90;;;;;;485230;245;28010;-66
2024/01/03 00:38:28;;;;;;;2.90;1.40;;;8.00;99.90;;;;;;485191;245;27507;-66
2024/01/03 00:40:30;;;;;;;3.73;1.40;;;7.90;99.90;;;;;;485222;245;27513;-66
2024/01/03 00:42:31;;;;;;;3.80;1.77;;;7.90;99.90;;;;;;485232;245;27867;-67
2024/01/03 00:44:32;;;;;;;5.93;1.93;;;7.90;99.90;;;;;;485207;245;27930;-67
2024/01/03 00:46:33;;;;;;;6.00;1.93;;;8.00;99.90;;;;;;485243;245;27653;-67
2024/01/03 00:48:35;;;;;;;7.60;2.10;;;8.00;99.90;;;;;;485235;245;27655;-67
2024/01/03 00:50:36;;;;;;;9.40;1.97;;;8.00;99.90;;;;;;485235;245;27831;-66
2024/01/03 00:52:37;;;;;;;7.13;1.90;;;8.00;99.90;;;;;;485238;245;28541;-67
2024/01/03 00:54:38;;;;;;;8.90;1.87;;;8.10;99.90;;;;;;485219;245;28299;-67
2024/01/03 00:56:40;;;;;;;3.90;2.00;;;8.10;99.90;;;;;;485221;245;28289;-66
2024/01/03 00:58:41;;;;;;;6.47;1.67;;;8.10;99.90;;;;;;485223;245;28350;-66
2024/01/03 01:00:42;;;;;;;4.50;1.83;;;8.20;99.90;;;;;;485094;245;27932;-67
2024/01/03 01:02:43;;;;;;;5.27;2.23;;;8.20;99.90;;;;;;485228;245;27961;-66
2024/01/03 01:04:45;;;;;;;6.80;1.80;;;8.20;99.90;;;;;;485197;245;28007;-67
2024/01/03 01:06:46;;;;;;;11.10;3.10;;;8.20;99.90;;;;;;485215;245;27968;-66
2024/01/03 01:08:47;;;;;;;3.57;1.73;;;8.20;99.90;;;;;;485224;245;27868;-67
2024/01/03 01:10:48;;;;;;;6.67;2.03;;;8.30;99.90;;;;;;485226;245;28070;-66
2024/01/03 01:12:50;;;;;;;8.30;2.07;;;8.20;99.90;;;;;;485221;245;27517;-67
2024/01/03 01:14:51;;;;;;;10.40;2.03;;;8.20;99.90;;;;;;485206;245;27962;-68
2024/01/03 01:16:52;;;;;;;4.03;1.90;;;8.20;99.90;;;;;;485217;245;27514;-67
2024/01/03 01:18:53;;;;;;;10.73;2.63;;;8.30;99.90;;;;;;485219;245;28133;-67
2024/01/03 01:20:55;;;;;;;6.77;2.40;;;8.30;99.90;;;;;;485230;245;27906;-68
2024/01/03 01:22:56;;;;;;;8.60;2.20;;;8.30;99.90;;;;;;485215;245;27755;-67
2024/01/03 01:24:57;;;;;;;14.57;2.73;;;8.40;99.90;;;;;;485225;245;27866;-68
2024/01/03 01:26:59;;;;;;;5.10;2.00;;;8.40;99.90;;;;;;485256;245;28218;-67
2024/01/03 01:29:00;;;;;;;6.40;2.50;;;8.40;99.90;;;;;;485247;245;28119;-67
2024/01/03 01:31:01;;;;;;;6.90;2.23;;;8.40;99.90;;;;;;485262;245;28470;-68
2024/01/03 01:33:02;;;;;;;5.97;2.00;;;8.40;99.90;;;;;;485252;245;28237;-67
2024/01/03 01:35:03;;;;;;;6.60;2.23;;;8.40;99.90;;;;;;485218;245;28491;-67
2024/01/03 01:37:05;;;;;;;5.93;2.47;;;8.40;99.90;;;;;;485255;242;27761;-66
2024/01/03 01:39:06;;;;;;;8.00;2.23;;;8.40;99.90;;;;;;485266;245;28073;-67
2024/01/03 01:41:07;;;;;;;9.07;2.63;;;8.40;99.90;;;;;;485257;245;27894;-67
2024/01/03 01:43:08;;;;;;;9.07;2.47;;;8.40;99.90;;;;;;485247;245;27755;-67
2024/01/03 01:45:10;;;;;;;7.97;2.33;;;8.40;99.90;;;;;;485234;245;27634;-67
2024/01/03 01:47:11;;;;;;;14.17;2.80;;;8.50;99.90;;;;;;485253;245;27813;-67
2024/01/03 01:49:12;;;;;;;7.33;2.33;;;8.40;99.90;;;;;;485259;245;27961;-67
2024/01/03 01:51:13;;;;;;;8.33;2.30;;;8.50;99.90;;;;;;485236;245;27644;-67
2024/01/03 01:53:15;;;;;;;11.27;2.50;;;8.50;99.90;;;;;;485256;245;27515;-67
2024/01/03 01:55:16;;;;;;;6.10;2.13;;;8.50;99.90;;;;;;485221;245;27984;-66
2024/01/03 01:57:17;;;;;;;7.40;2.97;;;8.50;99.90;;;;;;485245;245;27530;-68
2024/01/03 01:59:18;;;;;;;12.80;2.83;;;8.50;99.90;;;;;;485242;245;27769;-67
2024/01/03 02:01:20;;;;;;;6.17;2.30;;;8.50;99.90;;;;;;485243;245;27980;-67
2024/01/03 02:03:21;;;;;;;14.17;2.70;;;8.50;99.90;;;;;;485252;245;27990;-67
2024/01/03 02:05:22;;;;;;;7.67;2.37;;;8.50;99.90;;;;;;485145;245;28228;-66
2024/01/03 02:07:24;;;;;;;8.80;3.10;;;8.40;99.90;;;;;;485258;245;28470;-67
2024/01/03 02:09:25;;;;;;;8.00;2.10;;;8.50;99.90;;;;;;485186;245;28461;-67
2024/01/03 02:11:26;;;;;;;13.67;2.70;;;8.50;99.90;;;;;;485238;245;28044;-66
2024/01/03 02:13:27;;;;;;;6.47;2.87;;;8.40;99.90;;;;;;485247;245;27759;-67
2024/01/03 02:15:28;;;;;;;8.00;2.30;;;8.50;99.90;;;;;;485233;245;27950;-68
2024/01/03 02:17:30;;;;;;;5.73;2.10;;;8.50;99.90;;;;;;485253;245;27417;-68
2024/01/03 02:19:31;;;;;;;7.83;2.60;;;8.50;99.90;;;;;;485265;245;27886;-66
2024/01/03 02:21:32;;;;;;;6.73;2.13;;;8.50;99.90;;;;;;485233;245;27540;-66
2024/01/03 02:23:33;;;;;;;7.47;2.57;;;8.40;99.90;;;;;;481558;245;27898;-66
2024/01/03 02:25:35;;;;;;;12.60;2.70;;;8.40;99.90;;;;;;478482;248;27990;-66
2024/01/03 02:27:36;;;;;;;12.87;2.80;;;8.50;99.90;;;;;;478479;248;27645;-67
2024/01/03 02:29:37;;;;;;;5.47;2.00;;;8.50;99.90;;;;;;478473;248;27877;-66
2024/01/03 02:31:40;;;;;;;2.33;1.70;;;8.50;99.90;;;;;;478481;248;28098;-66
2024/01/03 02:33:40;;;;;;;6.03;1.90;;;8.20;99.90;;;;;;478409;248;27853;-67
2024/01/03 02:35:41;;;;;;;4.27;1.70;;;8.10;99.90;;;;;;478482;248;27878;-66
2024/01/03 02:37:42;;;;;;;3.60;1.50;;;8.10;99.90;;;;;;478347;248;28340;-67
2024/01/03 02:39:43;;;;;;;14.90;3.00;;;8.00;99.90;;;;;;478446;248;28128;-66
2024/01/03 02:41:45;;;;;;;6.80;2.30;;;8.10;99.90;;;;;;478444;248;27986;-66
2024/01/03 02:43:46;;;;;;;11.27;2.67;;;8.30;99.90;;;;;;478428;248;28270;-66
2024/01/03 02:45:47;;;;;;;5.40;1.90;;;8.40;99.90;;;;;;478484;248;27970;-66
2024/01/03 02:47:48;;;;;;;9.00;2.33;;;8.50;99.90;;;;;;478479;248;27863;-66
2024/01/03 02:49:50;;;;;;;10.10;2.47;;;8.40;99.90;;;;;;478479;248;28005;-66
2024/01/03 02:51:51;;;;;;;11.73;2.40;;;8.50;99.90;;;;;;478475;248;27976;-66
2024/01/03 02:53:52;;;;;;;12.47;2.23;;;8.50;99.90;;;;;;478455;248;27411;-67
2024/01/03 02:55:53;;;;;;;6.20;1.80;;;8.50;99.90;;;;;;478460;248;27545;-66
2024/01/03 02:57:55;;;;;;;14.40;2.80;;;8.50;99.90;;;;;;478469;247;27763;-68
2024/01/03 02:59:56;;;;;;;7.53;2.07;;;8.50;99.90;;;;;;478484;248;28003;-68
2024/01/03 03:01:57;;;;;;;6.13;2.33;;;8.50;99.90;;;;;;478373;248;27656;-68
2024/01/03 03:03:58;;;;;;;6.33;2.40;;;8.50;99.90;;;;;;478448;248;27526;-68
2024/01/03 03:06:00;;;;;;;9.90;2.33;;;8.50;99.90;;;;;;478419;246;27525;-67
2024/01/03 03:08:01;;;;;;;5.10;2.03;;;8.50;99.90;;;;;;478475;248;27937;-66
2024/01/03 03:10:02;;;;;;;7.60;1.90;;;8.50;99.90;;;;;;478475;247;28500;-68
2024/01/03 03:12:03;;;;;;;8.50;2.07;;;8.50;99.90;;;;;;478469;248;28108;-66
2024/01/03 03:14:05;;;;;;;10.40;2.20;;;8.50;99.90;;;;;;478456;248;28360;-66
2024/01/03 03:16:06;;;;;;;8.57;2.27;;;8.60;99.90;;;;;;478467;247;28209;-66
2024/01/03 03:18:07;;;;;;;6.57;1.83;;;8.60;99.90;;;;;;478472;248;28322;-67
2024/01/03 03:20:08;;;;;;;3.00;1.70;;;8.60;99.90;;;;;;478485;248;27910;-68
2024/01/03 03:22:10;;;;;;;5.40;2.07;;;8.50;99.90;;;;;;478475;247;27987;-67
2024/01/03 03:24:11;;;;;;;8.13;2.00;;;8.40;99.90;;;;;;478445;248;27422;-67
2024/01/03 03:26:12;;;;;;;6.10;1.90;;;8.40;99.90;;;;;;478478;247;27891;-67
2024/01/03 03:28:13;;;;;;;8.13;2.00;;;8.40;99.90;;;;;;478482;248;28041;-66
2024/01/03 03:30:15;;;;;;;8.93;2.23;;;8.40;99.90;;;;;;478484;248;27957;-70
2024/01/03 03:32:16;;;;;;;6.40;2.67;;;8.40;99.90;;;;;;478479;248;27983;-66
2024/01/03 03:34:17;;;;;;;8.53;2.30;;;8.40;99.90;;;;;;478440;248;27861;-66
2024/01/03 03:36:20;;;;;;;9.10;2.30;;;8.50;99.90;;;;;;478457;248;27988;-67
2024/01/03 03:38:20;;;;;;;7.63;3.10;;;8.40;99.90;;;;;;478376;248;27917;-66
2024/01/03 03:40:23;;;;;;;11.13;2.10;;;8.40;99.90;;;;;;478477;248;27741;-69
2024/01/03 03:42:22;;;;;;;12.10;2.20;;;8.40;99.90;;;;;;478380;248;27892;-67
2024/01/03 03:44:23;;;;;;;9.13;2.33;;;8.40;99.90;;;;;;478444;248;27848;-67
2024/01/03 03:46:25;;;;;;;8.83;2.60;;;8.40;99.90;;;;;;478468;248;28385;-69
2024/01/03 03:48:26;;;;;;;12.17;2.47;;;8.40;99.90;;;;;;478439;247;28375;-66
2024/01/03 03:50:27;;;;;;;12.60;2.70;;;8.50;99.90;;;;;;478384;248;28475;-67
2024/01/03 03:52:28;;;;;;;14.73;2.90;;;8.40;99.90;;;;;;478472;248;28362;-67
2024/01/03 03:54:30;;;;;;;12.40;3.37;;;8.40;99.90;;;;;;478424;248;28003;-67
2024/01/03 03:56:31;;;;;;;11.63;2.40;;;8.40;99.90;;;;;;478379;247;27986;-67
2024/01/03 03:58:32;;;;;;;7.70;2.20;;;8.40;99.90;;;;;;478460;248;27859;-66
2024/01/03 04:00:33;;;;;;;10.03;2.17;;;8.40;99.90;;;;;;478473;248;27963;-66
2024/01/03 04:02:35;;;;;;;11.90;2.80;;;8.40;99.90;;;;;;478476;248;27931;-67
2024/01/03 04:04:36;;;;;;;12.50;2.30;;;8.40;99.90;;;;;;478443;248;27621;-66
2024/01/03 04:06:37;;;;;;;9.30;2.33;;;8.30;99.90;;;;;;478479;248;28030;-67
2024/01/03 04:08:38;;;;;;;12.40;2.67;;;8.30;99.90;;;;;;478463;248;27756;-66
2024/01/03 04:10:40;;;;;;;7.97;2.10;;;8.20;99.90;;;;;;478464;248;27664;-66
2024/01/03 04:12:41;;;;;;;10.17;2.60;;;8.10;99.90;;;;;;478446;248;28036;-67
2024/01/03 04:14:42;;;;;;;6.50;2.47;;;8.10;99.90;;;;;;478439;248;28101;-66
2024/01/03 04:16:43;;;;;;;12.63;2.50;;;8.00;99.90;;;;;;478460;248;28230;-67
2024/01/03 04:18:45;;;;;;;7.77;2.20;;;8.00;99.90;;;;;;478469;248;28008;-66
2024/01/03 04:20:46;;;;;;;8.30;2.07;;;7.90;99.90;;;;;;478458;248;28084;-67
2024/01/03 04:22:47;;;;;;;12.07;2.90;;;7.90;99.90;;;;;;478472;248;27993;-67
2024/01/03 04:24:48;;;;;;;12.60;2.07;;;7.90;99.90;;;;;;478420;248;27390;-66
2024/01/03 04:26:50;;;;;;;7.27;2.13;;;7.90;99.90;;;;;;478475;248;27893;-67
2024/01/03 04:28:51;;;;;;;16.97;2.80;;;7.90;99.90;;;;;;478477;248;27763;-67
2024/01/03 04:30:52;;;;;;;15.43;2.30;;;7.90;99.90;;;;;;478462;248;27771;-67
2024/01/03 04:32:53;;;;;;;16.10;2.90;;;7.90;99.90;;;;;;478476;248;27888;-67
2024/01/03 04:34:55;;;;;;;12.80;2.97;;;8.00;99.90;;;;;;478439;248;27990;-66
2024/01/03 04:36:56;;;;;;;9.97;2.53;;;8.00;99.90;;;;;;478465;248;27967;-67
2024/01/03 04:38:57;;;;;;;14.87;3.30;;;8.00;99.90;;;;;;478500;248;27895;-67
2024/01/03 04:40:58;;;;;;;11.10;2.83;;;8.00;99.90;;;;;;478456;248;27866;-66
2024/01/03 04:43:00;;;;;;;13.10;2.73;;;8.00;99.90;;;;;;478473;248;27957;-66
2024/01/03 04:45:01;;;;;;;13.83;2.43;;;8.00;99.90;;;;;;478435;248;28193;-66
2024/01/03 04:47:02;;;;;;;13.93;2.53;;;8.00;99.90;;;;;;478467;248;28428;-67
2024/01/03 04:49:03;;;;;;;10.60;2.40;;;8.10;99.90;;;;;;478468;248;27887;-68
2024/01/03 04:51:05;;;;;;;6.97;2.47;;;8.10;99.90;;;;;;478461;248;27748;-66
2024/01/03 04:53:06;;;;;;;9.10;2.67;;;8.00;99.90;;;;;;478456;248;27665;-67
2024/01/03 04:55:07;;;;;;;12.10;2.67;;;8.10;99.90;;;;;;478438;248;27896;-66
2024/01/03 04:57:08;;;;;;;12.13;2.50;;;8.10;99.90;;;;;;478459;247;27760;-66
2024/01/03 04:59:10;;;;;;;7.63;2.47;;;8.20;99.90;;;;;;478493;248;27857;-68
2024/01/03 05:01:11;;;;;;;10.87;2.67;;;8.20;99.90;;;;;;478491;248;27985;-66
2024/01/03 05:03:13;;;;;;;8.70;2.27;;;8.20;99.90;;;;;;478503;247;27414;-66
2024/01/03 05:05:13;;;;;;;9.17;3.57;;;8.20;99.90;;;;;;478448;247;27849;-66
2024/01/03 05:07:15;;;;;;;12.77;3.33;;;8.20;99.90;;;;;;478493;248;27991;-66
2024/01/03 05:09:16;;;;;;;14.90;2.53;;;8.20;99.90;;;;;;478486;248;27912;-67
2024/01/03 05:11:17;;;;;;;13.30;2.60;;;8.20;99.90;;;;;;478480;248;28305;-66
2024/01/03 05:13:18;;;;;;;15.53;2.37;;;8.20;99.90;;;;;;478386;248;28589;-67
2024/01/03 05:15:20;;;;;;;10.20;2.17;;;8.20;99.90;;;;;;478458;247;28410;-67
2024/01/03 05:17:21;;;;;;;8.40;2.37;;;8.20;99.90;;;;;;478491;248;28427;-66
2024/01/03 05:19:22;;;;;;;6.50;2.03;;;8.20;99.90;;;;;;478505;248;27842;-67
2024/01/03 05:21:23;;;;;;;9.73;2.40;;;8.30;99.90;;;;;;478494;248;27765;-67
2024/01/03 05:23:25;;;;;;;10.23;2.60;;;8.20;99.90;;;;;;478483;248;27616;-67
2024/01/03 05:25:26;;;;;;;16.37;2.63;;;8.20;99.90;;;;;;478456;248;27914;-67
2024/01/03 05:27:27;;;;;;;8.90;2.40;;;8.20;99.90;;;;;;478508;248;27850;-66
2024/01/03 05:29:28;;;;;;;10.20;2.67;;;8.20;99.90;;;;;;478499;248;27911;-66
2024/01/03 05:31:30;;;;;;;8.53;2.23;;;8.20;99.90;;;;;;478485;248;28064;-66
2024/01/03 05:33:31;;;;;;;7.73;2.80;;;8.20;99.90;;;;;;478456;248;27973;-67
2024/01/03 05:35:32;;;;;;;14.47;2.67;;;8.20;99.90;;;;;;478486;248;27910;-68
2024/01/03 05:37:33;;;;;;;9.90;2.60;;;8.20;99.90;;;;;;478476;248;27866;-66
2024/01/03 05:39:35;;;;;;;6.77;2.10;;;8.20;99.90;;;;;;478490;248;28041;-67
2024/01/03 05:41:36;;;;;;;9.53;2.70;;;8.20;99.90;;;;;;478480;248;27856;-66
2024/01/03 05:43:37;;;;;;;16.53;2.70;;;8.20;99.90;;;;;;478452;248;28331;-67
2024/01/03 05:45:38;;;;;;;14.10;2.70;;;8.20;99.90;;;;;;478488;248;28497;-67
2024/01/03 05:47:40;;;;;;;8.17;2.10;;;8.20;99.90;;;;;;478486;248;28386;-66
2024/01/03 05:49:41;;;;;;;9.70;2.47;;;8.20;99.90;;;;;;478444;248;28463;-66
2024/01/03 05:51:42;;;;;;;9.10;2.10;;;8.20;99.90;;;;;;478441;247;27906;-66
2024/01/03 05:53:47;;;;;;;5.50;2.07;;;8.20;99.90;;;;;;478439;248;28099;-67
2024/01/03 05:55:45;;;;;;;6.20;2.00;;;8.20;99.90;;;;;;478300;248;27932;-67
2024/01/03 05:57:46;;;;;;;4.33;1.90;;;8.20;99.90;;;;;;478470;248;27898;-66
2024/01/03 05:59:47;;;;;;;6.20;1.67;;;8.10;99.90;;;;;;478479;248;27879;-66
2024/01/03 06:01:48;;;;;;;5.70;2.10;;;8.10;99.90;;;;;;478486;248;27997;-67
2024/01/03 06:03:50;;;;;;;10.97;2.17;;;8.00;99.90;;;;;;478460;248;27422;-66
2024/01/03 06:05:51;;;;;;;8.07;1.90;;;8.00;99.90;;;;;;478419;248;27860;-66
2024/01/03 06:07:52;;;;;;;4.50;1.73;;;7.90;99.90;;;;;;478484;248;28005;-66
2024/01/03 06:09:53;;;;;;;6.90;2.00;;;7.90;99.90;;;;;;478489;248;27790;-66
2024/01/03 06:11:55;;;;;;;3.83;1.60;;;7.90;99.90;;;;;;478480;248;28086;-68
2024/01/03 06:13:56;;;;;;;9.37;1.63;;;7.90;99.90;;;;;;478459;248;28679;-66
2024/01/03 06:15:57;;;;;;;7.77;1.90;;;7.90;99.90;;;;;;478476;248;27994;-67
2024/01/03 06:17:59;;;;;;;8.27;2.70;;;7.90;99.90;;;;;;478480;247;28342;-66
2024/01/03 06:20:00;;;;;;;6.10;1.87;;;7.90;99.90;;;;;;478484;248;28333;-66
2024/01/03 06:22:01;;;;;;;4.53;1.90;;;8.00;99.90;;;;;;478479;248;28224;-67
2024/01/03 06:24:02;;;;;;;8.73;1.63;;;8.00;99.90;;;;;;478460;248;27758;-66
2024/01/03 06:26:03;;;;;;;12.67;2.40;;;8.00;99.90;;;;;;478488;248;27858;-67
2024/01/03 06:28:05;;;;;;;7.30;1.73;;;8.00;99.90;;;;;;478501;248;27987;-66
2024/01/03 06:30:06;;;;;;;11.40;3.03;;;8.10;99.90;;;;;;478482;248;27905;-66
2024/01/03 06:32:07;;;;;;;8.30;2.17;;;8.10;99.90;;;;;;478484;248;27529;-68
2024/01/03 06:34:08;;;;;;;11.83;2.53;;;8.10;99.90;;;;;;478453;248;27981;-66
2024/01/03 06:36:10;;;;;;;4.30;1.87;;;8.00;99.90;;;;;;478477;248;27878;-66
2024/01/03 06:38:11;;;;;;;8.10;2.77;;;8.00;99.90;;;;;;478516;248;27881;-68
2024/01/03 06:40:12;;;;;;;4.77;1.70;;;8.00;99.90;;;;;;478476;248;27773;-66
2024/01/03 06:42:13;;;;;;;7.47;2.10;;;8.10;99.90;;;;;;478484;248;27745;-67
2024/01/03 06:44:15;;;;;;;10.70;2.23;;;8.10;99.90;;;;;;478456;248;28017;-66
2024/01/03 06:46:16;;;;;;;9.20;2.13;;;8.00;99.90;;;;;;478471;248;27540;-67
2024/01/03 06:48:17;;;;;;;5.87;2.00;;;8.00;99.90;;;;;;478485;248;28498;-68
2024/01/03 06:50:18;;;;;;;6.43;1.80;;;8.00;99.90;;;;;;478478;248;28462;-67
2024/01/03 06:52:20;;;;;;;6.73;1.93;;;8.00;99.90;;;;;;478476;247;28312;-66
2024/01/03 06:54:21;;;;;;;9.03;2.13;;;8.00;99.90;;;;;;478421;248;28405;-66
2024/01/03 06:56:23;;;;;;;6.60;1.87;;;8.00;99.90;;;;;;478487;248;28321;-66
2024/01/03 06:58:23;;;;;;;6.77;2.30;;;8.00;99.90;;;;;;478436;248;27839;-67
2024/01/03 07:00:25;;;;;;;6.77;2.00;;;8.00;99.90;;;;;;478484;247;27817;-66
2024/01/03 07:02:26;;;;;;;10.47;2.20;;;8.00;99.90;;;;;;478477;248;27944;-67
2024/01/03 07:04:27;;;;;;;12.13;2.57;;;8.10;99.90;;;;;;478441;248;27958;-70
2024/01/03 07:06:28;;;;;;;6.33;2.13;;;8.10;99.90;;;;;;478424;248;27888;-67
2024/01/03 07:08:30;;;;;;;6.73;1.80;;;8.10;99.90;;;;;;478478;248;27394;-66
2024/01/03 07:10:31;;;;;;;6.40;2.27;;;8.10;99.90;;;;;;478459;248;27892;-66
2024/01/03 07:12:32;;;;;;;12.77;2.30;;;8.10;99.90;;;;;;478471;248;27940;-66
2024/01/03 07:14:33;;;;;;;6.37;2.33;;;8.10;99.90;;;;;;478452;248;28297;-68
2024/01/03 07:16:35;;;;;;;9.60;2.50;;;8.10;99.90;;;;;;478483;248;28466;-66
2024/01/03 07:18:36;;;;;;;13.10;2.70;;;8.20;99.90;;;;;;478466;248;28443;-67
2024/01/03 07:20:37;;;;;;;14.47;2.57;;;8.10;99.90;;;;;;478478;248;27748;-68
2024/01/03 07:22:38;;;;;;;7.80;2.30;;;8.10;99.90;;;;;;478458;247;27892;-67
2024/01/03 07:24:40;;;;;;;7.97;2.07;;;8.20;99.90;;;;;;478345;248;28108;-67
2024/01/03 07:26:41;;;;;;;6.17;2.33;;;8.20;99.90;;;;;;478485;248;27717;-66
2024/01/03 07:28:42;;;;;;;9.70;2.40;;;8.10;99.90;;;;;;478484;248;27736;-66
2024/01/03 07:30:44;;;;;;;7.50;2.10;;;8.20;99.90;;;;;;478481;248;27956;-66
2024/01/03 07:32:45;;;;;;;7.57;2.27;;;8.20;99.90;;;;;;478473;248;27856;-66
2024/01/03 07:34:46;;;;;;;6.17;2.13;;;8.20;99.90;;;;;;478434;248;27984;-67
2024/01/03 07:36:49;;;;;;;6.90;2.23;;;8.20;99.90;;;;;;478474;248;27972;-66
2024/01/03 07:38:48;;;;;;;7.80;2.07;;;8.20;99.90;;;;;;478393;248;27735;-67
2024/01/03 07:40:50;;;;;;;4.10;1.80;;;8.20;99.90;;;;;;478470;248;27401;-66
2024/01/03 07:42:51;;;;;;;3.30;1.70;;;8.20;99.90;;;;;;478479;248;27653;-66
2024/01/03 07:44:52;;;;;;;6.40;1.93;;;8.20;99.90;;;;;;478442;248;28581;-67
2024/01/03 07:46:53;;;;;;;11.20;2.00;;;8.30;99.90;;;;;;478479;248;28456;-66
2024/01/03 07:48:55;;;;;;;4.30;1.97;;;8.30;99.90;;;;;;478461;248;28340;-66
2024/01/03 07:50:56;;;;;;;6.13;2.03;;;8.30;99.90;;;;;;478468;247;28316;-68
2024/01/03 07:52:57;;;;;;;5.00;1.87;;;8.30;99.90;;;;;;478484;248;27770;-66
2024/01/03 07:54:58;;;;;;;8.07;2.07;;;8.40;99.90;;;;;;478432;248;28085;-65
2024/01/03 07:57:02;;;;;;;9.83;2.30;;;8.40;99.90;;;;;;478473;248;27846;-67
2024/01/03 07:59:01;;;;;;;7.80;2.10;;;8.40;99.90;;;;;;478337;248;27907;-67
2024/01/03 08:01:02;;;;;;;4.40;1.87;;;8.40;99.90;;;;;;478477;248;27415;-68
2024/01/03 08:03:04;;;;;;;3.60;1.73;;;8.30;99.90;;;;;;478490;248;27902;-67
2024/01/03 08:05:07;;;;;;;6.77;1.70;;;8.40;99.90;;;;;;478442;248;27731;-67
2024/01/03 08:07:06;;;;;;;6.00;1.90;;;8.40;99.90;;;;;;478360;248;27769;-67
2024/01/03 08:09:07;;;;;;;9.07;1.97;;;8.40;99.90;;;;;;478427;248;27510;-67
2024/01/03 08:11:08;;;;;;;4.47;1.63;;;8.30;99.90;;;;;;478472;248;28008;-69
2024/01/03 08:13:11;;;;;;;3.57;1.80;;;8.30;99.90;;;;;;478473;248;28427;-66
2024/01/03 08:15:11;;;;;;;8.23;2.10;;;8.30;99.90;;;;;;478393;248;28296;-66
2024/01/03 08:17:12;;;;;;;6.10;1.80;;;8.30;99.90;;;;;;478481;248;28866;-66
2024/01/03 08:19:13;;;;;;;6.50;2.30;;;8.30;99.90;;;;;;478458;248;28347;-67
2024/01/03 08:21:15;;;;;;;8.00;2.40;;;8.30;99.90;;;;;;478474;247;28449;-67
2024/01/03 08:23:16;;;;;;;8.03;2.10;;;8.40;99.90;;;;;;478478;248;27768;-66
2024/01/03 08:25:17;;;;;;;13.80;2.50;;;8.30;99.90;;;;;;478437;248;27899;-68
2024/01/03 08:27:18;;;;;;;13.90;2.57;;;8.30;99.90;;;;;;478473;248;27786;-67
2024/01/03 08:29:20;;;;;;;14.43;2.73;;;8.40;99.90;;;;;;478465;248;27891;-67
2024/01/03 08:31:21;;;;;;;17.97;3.20;;;8.40;99.90;;;;;;478450;248;27969;-67
2024/01/03 08:33:22;;;;;;;11.83;2.93;;;8.40;99.90;;;;;;478460;248;27773;-66
2024/01/03 08:35:23;;;;;;;7.40;2.20;;;8.50;99.90;;;;;;478446;248;27789;-66
2024/01/03 08:37:25;;;;;;;13.20;2.60;;;8.50;99.90;;;;;;478437;248;28455;-66
2024/01/03 08:39:26;;;;;;;4.23;1.90;;;8.50;99.90;;;;;;478460;248;28211;-68
2024/01/03 08:41:27;;;;;;;8.43;2.43;;;8.60;99.90;;;;;;478457;248;27990;-67
2024/01/03 08:43:29;;;;;;;4.40;2.20;;;8.60;99.90;;;;;;478445;248;27889;-70
2024/01/03 08:45:30;;;;;;;9.83;2.10;;;8.60;99.90;;;;;;478452;248;27884;-68
2024/01/03 08:47:31;;;;;;;7.10;2.00;;;8.60;99.90;;;;;;478468;248;27760;-67
2024/01/03 08:49:32;;;;;;;5.10;2.13;;;8.60;99.90;;;;;;478471;248;27713;-66
2024/01/03 08:51:34;;;;;;;4.87;2.00;;;8.60;99.90;;;;;;478478;248;27949;-66
2024/01/03 08:53:35;;;;;;;10.70;2.00;;;8.60;99.90;;;;;;478437;248;27984;-66
2024/01/03 08:55:36;;;;;;;3.70;1.50;;;8.60;99.90;;;;;;478466;248;27857;-66
2024/01/03 08:57:37;;;;;;;11.00;2.30;;;8.50;99.90;;;;;;478463;248;27973;-66
2024/01/03 08:59:39;;;;;;;2.50;1.50;;;8.60;99.90;;;;;;478471;248;27867;-66
2024/01/03 09:01:40;;;;;;;6.70;1.80;;;8.50;99.90;;;;;;478466;248;27865;-65
2024/01/03 09:03:41;;;;;;;7.90;1.90;;;8.40;99.90;;;;;;478436;248;28018;-67
2024/01/03 09:05:42;;;;;;;3.47;1.30;;;8.30;99.90;;;;;;478479;248;27700;-67
2024/01/03 09:07:45;;;;;;;2.50;1.27;;;8.20;99.90;;;;;;478447;248;28378;-67
2024/01/03 09:09:45;;;;;;;1.77;1.13;;;8.10;99.90;;;;;;478265;248;27953;-67
2024/01/03 09:11:46;;;;;;;2.93;1.30;;;8.10;99.90;;;;;;478460;248;28221;-66
2024/01/03 09:13:49;;;;;;;1.00;1.00;;;8.00;99.90;;;;;;478452;248;28293;-68
2024/01/03 09:15:49;;;;;;;2.20;1.13;;;7.90;99.90;;;;;;478372;248;28326;-66
2024/01/03 09:17:50;;;;;;;1.67;0.90;;;7.90;99.90;;;;;;478470;248;27858;-66
2024/01/03 09:19:51;;;;;;;2.63;1.10;;;7.90;99.90;;;;;;478465;248;27985;-66
2024/01/03 09:21:54;;;;;;;1.40;1.03;;;7.90;99.90;;;;;;478469;248;27875;-67
2024/01/03 09:23:54;;;;;;;5.20;1.40;;;7.90;99.90;;;;;;478349;248;27981;-67
2024/01/03 09:25:55;;;;;;;8.87;1.10;;;7.90;99.90;;;;;;478470;247;27867;-67
2024/01/03 09:27:57;;;;;;;2.67;1.10;;;7.80;99.90;;;;;;478472;248;27867;-66
2024/01/03 09:29:57;;;;;;;3.87;1.40;;;7.80;99.90;;;;;;478408;248;27889;-66
2024/01/03 09:31:59;;;;;;;1.43;1.00;;;7.80;99.90;;;;;;478465;247;27536;-67
2024/01/03 09:34:00;;;;;;;2.10;1.00;;;7.70;99.90;;;;;;478440;248;27753;-67
2024/01/03 09:36:01;;;;;;;1.60;0.90;;;7.70;99.90;;;;;;478469;248;27854;-66
2024/01/03 09:38:02;;;;;;;1.30;1.10;;;7.60;99.90;;;;;;478467;248;27866;-66
2024/01/03 09:40:03;;;;;;;1.13;1.00;;;7.70;99.90;;;;;;478458;248;27864;-68
2024/01/03 09:42:05;;;;;;;1.70;1.10;;;7.60;99.90;;;;;;478461;248;27851;-68
2024/01/03 09:44:06;;;;;;;1.03;0.93;;;7.60;99.90;;;;;;478443;248;27909;-68
2024/01/03 09:46:09;;;;;;;1.37;1.10;;;7.60;99.90;;;;;;478490;248;28378;-68
2024/01/03 09:48:11;;;;;;;1.90;1.10;;;7.60;99.90;;;;;;478379;248;28273;-66
2024/01/03 09:50:13;;;;;;;1.60;1.00;;;7.60;99.90;;;;;;478489;248;28416;-66
2024/01/03 09:52:14;;;;;;;5.03;1.10;;;7.70;99.90;;;;;;478487;248;28001;-67
2024/01/03 09:54:15;;;;;;;3.53;1.30;;;7.80;99.90;;;;;;478463;248;28122;-67
2024/01/03 09:56:16;;;;;;;3.27;1.20;;;7.80;99.90;;;;;;478493;248;27892;-67
2024/01/03 09:58:19;;;;;;;2.43;1.20;;;7.90;99.90;;;;;;478481;248;27971;-68
2024/01/03 10:00:19;;;;;;;1.90;1.10;;;7.90;99.90;;;;;;478415;248;27839;-66
2024/01/03 10:02:20;;;;;;;3.13;1.20;;;8.10;99.90;;;;;;478482;248;27999;-67
2024/01/03 10:04:21;;;;;;;2.73;1.37;;;8.20;99.90;;;;;;478361;248;27901;-67
2024/01/03 10:06:23;;;;;;;4.07;1.40;;;8.30;99.90;;;;;;478379;248;27975;-66
2024/01/03 10:08:24;;;;;;;8.43;2.13;;;8.40;99.90;;;;;;478450;248;27973;-67
2024/01/03 10:10:25;;;;;;;8.93;1.90;;;8.50;99.90;;;;;;478495;248;28014;-66
2024/01/03 10:12:26;;;;;;;3.70;1.63;;;8.60;99.90;;;;;;478322;248;27798;-68
2024/01/03 10:14:28;;;;;;;7.67;2.00;;;8.80;99.90;;;;;;478465;248;27880;-66
2024/01/03 10:16:30;;;;;;;5.83;1.53;;;9.00;99.90;;;;;;478380;248;27857;-67
2024/01/03 10:18:30;;;;;;;6.87;2.17;;;9.00;99.90;;;;;;478428;248;27975;-67
2024/01/03 10:20:31;;;;;;;12.90;2.07;;;9.10;99.90;;;;;;478435;248;27984;-67
2024/01/03 10:22:33;;;;;;;15.73;2.63;;;9.00;99.90;;;;;;478448;248;28315;-68
2024/01/03 10:24:34;;;;;;;6.90;2.30;;;9.10;99.90;;;;;;478427;248;28762;-67
2024/01/03 10:26:35;;;;;;;10.57;2.33;;;9.00;99.90;;;;;;478491;248;28100;-67
2024/01/03 10:28:37;;;;;;;5.97;2.17;;;8.90;99.90;;;;;;478476;248;28387;-68
2024/01/03 10:30:38;;;;;;;7.47;2.10;;;8.90;99.90;;;;;;478830;245;28356;-66
2024/01/03 10:32:39;;;;;;;10.17;2.50;;;8.80;99.90;;;;;;485234;245;28100;-68
2024/01/03 10:34:40;;;;;;;9.57;1.90;;;8.80;99.90;;;;;;485205;242;27863;-68
2024/01/03 10:36:41;;;;;;;11.07;2.43;;;8.80;99.90;;;;;;485246;245;27735;-67
2024/01/03 10:38:43;;;;;;;15.83;2.73;;;8.90;99.90;;;;;;485252;245;27882;-67